Gold Beach, OR

7:31 AM PDT on August 27, 2016 (GMT -0700)
MesoWest | | Change Station

Elev 16 ft 42.41 °N, 124.42 °W | Updated 32 minutes ago

Light Rain
Light Rain Mist
54 °F
Feels Like 54 °F
N
0
Wind Variable Wind from North
Gusts 0.0 mph

Today
High -- | Low -- °F
--% Chance of Precip.
Yesterday
High -- | Low -- °F
Precip. -- in
Pressure 30.02 in
Visibility 2.5 miles
Clouds Overcast 200 ft
Dew Point 52 °F
Humidity 94%
Rainfall in
Snow Depth Not available.
6:37 AM 7:58 PM
Waning Crescent, 24% visible
SPECI KBOK 271413Z AUTO 00000KT 2 1/2SM -RA BR OVC002 12/11 A3002 RMK AO2 VIS 1 1/2V4 P0001
Pressure 30.02 in
Visibility 2.5 miles
Clouds Overcast 200 ft
Dew Point 52 °F
Humidity 94%
Rainfall in
Snow Depth Not available.
6:37 AM 7:58 PM
Waning Crescent, 24% visible
SPECI KBOK 271413Z AUTO 00000KT 2 1/2SM -RA BR OVC002 12/11 A3002 RMK AO2 VIS 1 1/2V4 P0001

10-Day Weather Forecast

Almanac

Astronomy

Aug. 27, 2016 Rise Set
Actual Time
Civil Twilight
Nautical Twilight
Astronomical Twilight
Moon
Length of Visible Light
Length of Day
Tomorrow will be .
, % of the Moon is Illuminated

Today's Extremes

State Highs State Lows

Community

WunderPhotos

Upload Photos

1,935,344 photos uploaded!

WunderBlog® & News

Nearby

Air Quality

  Air Quality AQ Index Pollutant
Not available.

Snow Depth

Station Depth Elevation

Earthquake Activity

City Distance Mag. Time & Date
Minimum magnitude displayed is 2.5.

Coastal Water Temperatures

Place Temperature

Stations

Nearby Weather Stations

Station Location Temp. Windchill Dew Point Humidity Wind Precip. Elev Updated Type
                   

Watches & Warnings

There are currently no watches in effect.